Time;durP1;ratioP1;P1;durP2;ratioP2;P2;SDS_P1;SDS_P2;PMS_P1;PMS_P2;Temp;Humidity;BMP_temperature;BMP_pressure;BME280_temperature;BME280_humidity;BME280_pressure;Samples;Min_cycle;Max_cycle;Signal;HPM_P1;HPM_P2
2023/11/29 00:02:07;;;;;;;9.53;5.73;;;-0.90;99.90;;;;;;5048199;28;20222;-65
2023/11/29 00:04:33;;;;;;;7.43;4.67;;;-0.90;99.90;;;;;;5052349;28;20182;-62
2023/11/29 00:06:58;;;;;;;7.67;5.77;;;-0.90;99.90;;;;;;5043777;28;20171;-63
2023/11/29 00:09:24;;;;;;;8.17;5.53;;;-0.90;99.90;;;;;;5041856;28;20417;-63
2023/11/29 00:11:50;;;;;;;8.07;5.20;;;-0.80;99.90;;;;;;5035573;28;20622;-61
2023/11/29 00:14:15;;;;;;;6.93;5.40;;;-0.80;99.90;;;;;;5034766;28;20182;-61
2023/11/29 00:16:41;;;;;;;8.07;5.67;;;-0.80;99.90;;;;;;5042671;28;20167;-63
2023/11/29 00:19:06;;;;;;;6.30;5.70;;;-0.90;99.90;;;;;;5028386;28;20167;-63
2023/11/29 00:21:32;;;;;;;10.83;6.10;;;-0.90;99.90;;;;;;5044772;28;20175;-60
2023/11/29 00:23:59;;;;;;;6.53;5.70;;;-0.90;99.90;;;;;;5036778;28;20283;-61
2023/11/29 00:26:24;;;;;;;7.33;5.47;;;-1.00;99.90;;;;;;5044578;28;20181;-62
2023/11/29 00:28:51;;;;;;;6.67;5.37;;;-1.10;99.90;;;;;;5038525;28;20410;-62
2023/11/29 00:31:16;;;;;;;6.83;5.73;;;-1.10;99.90;;;;;;5045151;28;20171;-62
2023/11/29 00:33:42;;;;;;;7.57;6.70;;;-1.20;99.90;;;;;;5044715;28;21025;-62
2023/11/29 00:36:09;;;;;;;6.97;5.23;;;-1.10;99.90;;;;;;5061017;28;20233;-62
2023/11/29 00:38:35;;;;;;;7.13;5.73;;;-1.20;99.90;;;;;;5042540;28;20178;-63
2023/11/29 00:41:01;;;;;;;9.97;6.30;;;-1.30;99.90;;;;;;5040477;28;20464;-62
2023/11/29 00:43:26;;;;;;;7.80;6.37;;;-1.30;99.90;;;;;;5049153;28;20469;-62
2023/11/29 00:45:52;;;;;;;11.30;6.13;;;-1.30;99.90;;;;;;5039030;28;20201;-62
2023/11/29 00:48:17;;;;;;;7.77;6.20;;;-1.40;99.90;;;;;;5042779;28;20182;-62
2023/11/29 00:50:43;;;;;;;7.53;6.13;;;-1.40;99.90;;;;;;5040123;28;20179;-63
2023/11/29 00:53:08;;;;;;;8.50;6.87;;;-1.50;99.90;;;;;;5035152;28;20300;-62
2023/11/29 00:55:34;;;;;;;7.93;7.03;;;-1.60;99.90;;;;;;5049332;28;20579;-62
2023/11/29 00:58:00;;;;;;;10.77;6.97;;;-1.60;99.90;;;;;;5044729;28;20172;-62
2023/11/29 01:00:28;;;;;;;8.50;6.40;;;-1.60;99.90;;;;;;5049801;28;20489;-62
2023/11/29 01:02:54;;;;;;;9.60;7.73;;;-1.70;99.90;;;;;;5050313;28;20229;-62
2023/11/29 01:05:19;;;;;;;11.40;6.30;;;-1.70;99.90;;;;;;5033156;28;20460;-62
2023/11/29 01:07:45;;;;;;;10.07;6.97;;;-1.70;99.90;;;;;;5041970;28;20524;-62
2023/11/29 01:10:11;;;;;;;9.77;7.03;;;-1.80;99.90;;;;;;5047574;28;20237;-61
2023/11/29 01:12:36;;;;;;;7.83;6.57;;;-1.80;99.90;;;;;;5049260;28;20274;-62
2023/11/29 01:15:02;;;;;;;9.07;7.03;;;-1.80;99.90;;;;;;5049449;28;20243;-63
2023/11/29 01:17:28;;;;;;;10.60;7.20;;;-1.80;99.90;;;;;;5042316;28;20599;-63
2023/11/29 01:19:54;;;;;;;10.00;6.93;;;-1.90;99.90;;;;;;5045159;28;20225;-63
2023/11/29 01:22:19;;;;;;;9.97;8.00;;;-1.90;99.90;;;;;;5046092;28;20277;-62
2023/11/29 01:24:45;;;;;;;11.30;7.30;;;-1.90;99.90;;;;;;5043983;28;20518;-61
2023/11/29 01:27:11;;;;;;;14.87;7.67;;;-1.90;99.90;;;;;;5049617;28;20186;-63
2023/11/29 01:29:37;;;;;;;11.80;8.27;;;-2.00;99.90;;;;;;5037159;28;20170;-62
2023/11/29 01:32:03;;;;;;;10.80;7.73;;;-1.90;99.90;;;;;;5036377;28;20460;-63
2023/11/29 01:34:29;;;;;;;13.33;9.30;;;-1.90;99.90;;;;;;5045272;28;20200;-62
2023/11/29 01:36:54;;;;;;;13.13;8.13;;;-2.00;99.90;;;;;;5046719;28;20437;-63
2023/11/29 01:39:20;;;;;;;10.13;7.63;;;-2.00;99.90;;;;;;5046462;28;20182;-63
2023/11/29 01:41:45;;;;;;;11.43;6.97;;;-2.10;99.90;;;;;;5033385;28;20171;-62
2023/11/29 01:44:11;;;;;;;15.70;7.47;;;-2.10;99.90;;;;;;5039749;28;20182;-64
2023/11/29 01:46:37;;;;;;;10.90;8.70;;;-2.10;99.90;;;;;;5042297;28;20273;-62
2023/11/29 01:49:03;;;;;;;12.83;8.00;;;-2.10;99.90;;;;;;5037359;28;20168;-62
2023/11/29 01:51:30;;;;;;;8.80;7.00;;;-2.10;99.90;;;;;;5052954;28;20923;-61
2023/11/29 01:53:58;;;;;;;11.20;7.40;;;-2.10;99.90;;;;;;5046205;28;20468;-62
2023/11/29 01:56:24;;;;;;;14.30;8.23;;;-2.20;99.90;;;;;;5047543;28;20433;-62
2023/11/29 01:58:50;;;;;;;11.00;8.00;;;-2.20;99.90;;;;;;5043909;28;20974;-61
2023/11/29 02:01:17;;;;;;;9.50;6.60;;;-2.20;99.90;;;;;;5045413;28;20321;-63
2023/11/29 02:03:42;;;;;;;9.07;7.00;;;-2.20;99.90;;;;;;5052378;28;20194;-62
2023/11/29 02:06:08;;;;;;;16.47;7.90;;;-2.20;99.90;;;;;;5048250;28;20436;-63
2023/11/29 02:08:35;;;;;;;12.50;7.73;;;-2.20;99.90;;;;;;5043626;28;20174;-62
2023/11/29 02:11:02;;;;;;;11.20;7.20;;;-2.20;99.90;;;;;;5039179;28;20800;-61
2023/11/29 02:13:27;;;;;;;10.90;7.60;;;-2.20;99.90;;;;;;5043764;28;20500;-62
2023/11/29 02:15:53;;;;;;;9.83;7.20;;;-2.20;99.90;;;;;;5041963;28;20418;-62
2023/11/29 02:18:18;;;;;;;11.80;6.37;;;-2.20;99.90;;;;;;5048545;28;20179;-62
2023/11/29 02:20:44;;;;;;;11.40;8.47;;;-2.20;99.90;;;;;;5054798;28;20640;-61
2023/11/29 02:23:22;;;;;;;12.20;8.13;;;-2.20;99.90;;;;;;5053324;28;20299;-62
2023/11/29 02:25:47;;;;;;;11.57;7.13;;;-2.20;99.90;;;;;;5050298;28;20517;-62
2023/11/29 02:28:13;;;;;;;15.53;8.57;;;-2.30;99.90;;;;;;5051376;28;20429;-60
2023/11/29 02:30:39;;;;;;;14.33;8.37;;;-2.20;99.90;;;;;;5055312;28;20179;-61
2023/11/29 02:33:04;;;;;;;9.90;7.53;;;-2.10;99.90;;;;;;5046565;28;20198;-60
2023/11/29 02:35:30;;;;;;;15.13;8.47;;;-2.20;99.90;;;;;;5038052;28;20174;-61
2023/11/29 02:37:55;;;;;;;12.90;8.23;;;-2.20;99.90;;;;;;5046226;28;20171;-62
2023/11/29 02:40:22;;;;;;;13.93;8.60;;;-2.20;99.90;;;;;;5046636;28;20379;-61
2023/11/29 02:42:48;;;;;;;9.03;6.47;;;-2.20;99.90;;;;;;5050318;28;20199;-62
2023/11/29 02:45:13;;;;;;;13.53;7.83;;;-2.20;99.90;;;;;;5044552;28;20961;-62
2023/11/29 02:47:39;;;;;;;10.33;7.33;;;-2.20;99.90;;;;;;5038950;28;20181;-62
2023/11/29 02:50:05;;;;;;;13.50;7.77;;;-2.20;99.90;;;;;;5052586;28;20171;-62
2023/11/29 02:52:31;;;;;;;8.13;6.40;;;-2.20;99.90;;;;;;5056579;28;20209;-61
2023/11/29 02:54:56;;;;;;;10.53;6.60;;;-2.20;99.90;;;;;;5055503;28;20421;-62
2023/11/29 02:57:22;;;;;;;11.57;7.50;;;-2.20;99.90;;;;;;5050769;28;20175;-63
2023/11/29 02:59:48;;;;;;;14.20;8.17;;;-2.20;99.90;;;;;;5048035;28;20167;-64
2023/11/29 03:02:14;;;;;;;10.17;7.00;;;-2.30;99.90;;;;;;5050946;28;20607;-64
2023/11/29 03:04:40;;;;;;;10.70;6.97;;;-2.30;99.90;;;;;;5051424;28;20295;-61
2023/11/29 03:07:06;;;;;;;11.87;7.57;;;-2.30;99.90;;;;;;5056003;28;20436;-62
2023/11/29 03:09:31;;;;;;;9.13;6.63;;;-2.30;99.90;;;;;;5053203;28;20602;-63
2023/11/29 03:11:57;;;;;;;9.77;7.27;;;-2.20;99.90;;;;;;5047078;28;20509;-63
2023/11/29 03:14:23;;;;;;;10.03;6.30;;;-2.30;99.90;;;;;;5051112;28;20591;-63
2023/11/29 03:16:48;;;;;;;6.70;5.50;;;-2.20;99.90;;;;;;5057143;28;20178;-63
2023/11/29 03:19:14;;;;;;;10.73;6.40;;;-2.20;99.90;;;;;;5043004;28;20171;-61
2023/11/29 03:21:39;;;;;;;6.87;6.10;;;-2.20;99.90;;;;;;5042818;28;20171;-61
2023/11/29 03:24:05;;;;;;;8.67;6.07;;;-2.20;99.90;;;;;;5058943;28;20187;-62
2023/11/29 03:26:31;;;;;;;7.63;6.03;;;-2.10;99.90;;;;;;5047890;28;20206;-63
2023/11/29 03:28:56;;;;;;;8.40;5.50;;;-2.10;99.90;;;;;;5054399;28;20417;-62
2023/11/29 03:31:22;;;;;;;7.83;6.30;;;-2.10;99.90;;;;;;5054328;28;20183;-61
2023/11/29 03:33:48;;;;;;;8.70;6.30;;;-2.10;99.90;;;;;;5050895;28;20206;-62
2023/11/29 03:36:13;;;;;;;8.77;6.10;;;-2.10;99.90;;;;;;5047812;28;20163;-63
2023/11/29 03:38:39;;;;;;;5.87;5.37;;;-2.20;99.90;;;;;;5049624;28;20826;-63
2023/11/29 03:41:05;;;;;;;8.73;6.00;;;-2.20;99.90;;;;;;5050551;28;20174;-64
2023/11/29 03:43:30;;;;;;;6.87;4.53;;;-2.20;99.90;;;;;;5040994;28;20553;-64
2023/11/29 03:45:56;;;;;;;8.60;5.40;;;-2.20;99.90;;;;;;5047525;28;20183;-61
2023/11/29 03:48:22;;;;;;;9.40;6.17;;;-2.30;99.90;;;;;;5045593;28;20270;-63
2023/11/29 03:50:47;;;;;;;12.80;5.90;;;-2.40;99.90;;;;;;5056062;28;20228;-63
2023/11/29 03:53:13;;;;;;;6.63;5.67;;;-2.40;99.90;;;;;;5051957;28;20650;-64
2023/11/29 03:55:39;;;;;;;8.03;5.53;;;-2.40;99.90;;;;;;5040248;28;20669;-65
2023/11/29 03:58:04;;;;;;;6.80;5.43;;;-2.40;99.90;;;;;;5033432;28;20644;-62
2023/11/29 04:00:30;;;;;;;10.03;6.80;;;-2.50;99.90;;;;;;5049147;28;20180;-62
2023/11/29 04:02:55;;;;;;;7.30;6.33;;;-2.50;99.90;;;;;;5054774;28;20190;-63
2023/11/29 04:05:23;;;;;;;7.70;5.27;;;-2.50;99.90;;;;;;5059182;28;20617;-63
2023/11/29 04:07:49;;;;;;;7.60;6.90;;;-2.50;99.90;;;;;;5042984;28;20178;-63
2023/11/29 04:10:14;;;;;;;7.93;6.10;;;-2.40;99.90;;;;;;5053859;28;20514;-62
2023/11/29 04:12:40;;;;;;;8.00;6.77;;;-2.40;99.90;;;;;;5050449;28;20461;-64
2023/11/29 04:15:06;;;;;;;13.83;7.80;;;-2.30;99.90;;;;;;5050126;28;20193;-62
2023/11/29 04:17:32;;;;;;;7.27;4.87;;;-2.30;99.90;;;;;;5057540;28;20228;-62
2023/11/29 04:19:57;;;;;;;6.83;6.13;;;-2.30;99.90;;;;;;5031757;28;20418;-61
2023/11/29 04:22:23;;;;;;;7.43;5.30;;;-2.30;99.90;;;;;;5046300;28;20270;-63
2023/11/29 04:24:49;;;;;;;7.10;6.20;;;-2.20;99.90;;;;;;5047574;28;20634;-62
2023/11/29 04:27:14;;;;;;;9.13;5.97;;;-2.20;99.90;;;;;;5047555;28;20183;-64
2023/11/29 04:29:40;;;;;;;7.97;6.07;;;-2.20;99.90;;;;;;5041332;28;20174;-63
2023/11/29 04:32:05;;;;;;;8.00;6.30;;;-2.20;99.90;;;;;;5052454;28;20207;-62
2023/11/29 04:34:31;;;;;;;8.00;5.60;;;-2.20;99.90;;;;;;5045529;28;20171;-62
2023/11/29 04:36:57;;;;;;;7.80;6.30;;;-2.20;99.90;;;;;;5039838;28;20186;-62
2023/11/29 04:39:22;;;;;;;5.33;4.77;;;-2.20;99.90;;;;;;5061598;28;20416;-62
2023/11/29 04:41:49;;;;;;;9.60;5.97;;;-2.20;99.90;;;;;;5055090;28;20171;-60
2023/11/29 04:44:15;;;;;;;8.37;6.30;;;-2.20;99.90;;;;;;5045552;28;20179;-63
2023/11/29 04:46:41;;;;;;;7.50;6.30;;;-2.20;99.90;;;;;;5059669;28;20414;-62
2023/11/29 04:49:06;;;;;;;8.37;6.23;;;-2.20;99.90;;;;;;5053748;28;20404;-61
2023/11/29 04:51:32;;;;;;;6.53;5.00;;;-2.10;99.90;;;;;;5045788;28;20205;-63
2023/11/29 04:53:57;;;;;;;7.50;6.67;;;-2.10;99.90;;;;;;5063773;28;20255;-62
2023/11/29 04:56:23;;;;;;;9.03;6.60;;;-2.10;99.90;;;;;;5053954;28;20588;-63
2023/11/29 04:58:49;;;;;;;6.97;6.23;;;-2.10;99.90;;;;;;5057477;28;20175;-63
2023/11/29 05:01:15;;;;;;;6.73;6.00;;;-2.10;99.90;;;;;;5042721;28;20654;-64
2023/11/29 05:03:40;;;;;;;9.33;6.50;;;-2.10;99.90;;;;;;5056761;28;20198;-63
2023/11/29 05:06:08;;;;;;;6.97;6.37;;;-2.10;99.90;;;;;;5052156;28;20422;-62
2023/11/29 05:08:33;;;;;;;9.20;6.33;;;-2.10;99.90;;;;;;5055957;28;20179;-61
2023/11/29 05:11:04;;;;;;;6.27;5.33;;;-2.00;99.90;;;;;;5056149;28;20417;-62
2023/11/29 05:13:30;;;;;;;7.97;6.00;;;-2.00;99.90;;;;;;5044526;28;20203;-63
2023/11/29 05:15:56;;;;;;;8.77;5.90;;;-2.00;99.90;;;;;;5054203;28;20488;-62
2023/11/29 05:18:21;;;;;;;10.00;6.60;;;-2.00;99.90;;;;;;5047819;28;20410;-63
2023/11/29 05:20:47;;;;;;;8.37;5.50;;;-1.90;99.90;;;;;;5052918;28;20179;-62
2023/11/29 05:23:13;;;;;;;10.30;6.40;;;-2.00;99.90;;;;;;5045706;28;20240;-62
2023/11/29 05:25:39;;;;;;;8.23;6.60;;;-1.90;99.90;;;;;;5049803;28;20247;-62
2023/11/29 05:28:05;;;;;;;7.27;6.43;;;-1.90;99.90;;;;;;5050269;28;20509;-62
2023/11/29 05:30:31;;;;;;;15.80;7.20;;;-2.00;99.90;;;;;;5052880;28;20186;-62
2023/11/29 05:32:56;;;;;;;7.60;5.43;;;-1.90;99.90;;;;;;5054644;28;20836;-62
2023/11/29 05:35:22;;;;;;;8.80;5.83;;;-1.90;99.90;;;;;;5049532;28;20179;-62
2023/11/29 05:37:47;;;;;;;10.13;6.33;;;-1.80;99.90;;;;;;5039510;28;20179;-64
2023/11/29 05:40:13;;;;;;;6.50;5.20;;;-1.80;99.90;;;;;;5048704;28;20649;-62
2023/11/29 05:42:40;;;;;;;9.00;5.50;;;-1.70;99.90;;;;;;5051437;28;20285;-62
2023/11/29 05:45:08;;;;;;;11.07;5.63;;;-1.70;99.90;;;;;;5065851;28;20211;-63
2023/11/29 05:47:34;;;;;;;7.17;5.43;;;-1.70;99.90;;;;;;5048357;28;20413;-62
2023/11/29 05:50:00;;;;;;;6.97;4.60;;;-1.70;99.90;;;;;;5062474;28;20924;-64
2023/11/29 05:52:26;;;;;;;5.70;4.77;;;-1.70;99.90;;;;;;5054333;28;20571;-64
2023/11/29 05:54:52;;;;;;;7.40;5.20;;;-1.80;99.90;;;;;;5051293;28;20589;-64
2023/11/29 05:57:17;;;;;;;6.47;5.43;;;-1.70;99.90;;;;;;5060119;28;20425;-61
2023/11/29 05:59:43;;;;;;;7.17;5.17;;;-1.70;99.90;;;;;;5054677;28;20216;-63
2023/11/29 06:02:08;;;;;;;6.13;5.00;;;-1.70;99.90;;;;;;5045846;28;20199;-62
2023/11/29 06:04:34;;;;;;;8.20;5.97;;;-1.60;99.90;;;;;;5050144;28;20208;-62
2023/11/29 06:06:59;;;;;;;5.73;5.20;;;-1.60;99.90;;;;;;5057534;28;20182;-63
2023/11/29 06:09:28;;;;;;;8.30;7.03;;;-1.60;99.90;;;;;;5054163;28;20242;-62
2023/11/29 06:12:00;;;;;;;7.83;6.37;;;-1.60;99.90;;;;;;5061449;28;20265;-62
2023/11/29 06:14:26;;;;;;;7.33;6.60;;;-1.60;99.90;;;;;;5054185;28;20463;-61
2023/11/29 06:16:53;;;;;;;7.50;6.70;;;-1.60;99.90;;;;;;5047082;28;20430;-62
2023/11/29 06:19:20;;;;;;;9.03;5.17;;;-1.50;99.90;;;;;;5052887;28;20449;-62
2023/11/29 06:21:46;;;;;;;7.13;5.60;;;-1.40;99.90;;;;;;5043860;28;20413;-62
2023/11/29 06:24:12;;;;;;;6.30;5.23;;;-1.50;99.90;;;;;;5045834;28;20780;-63
2023/11/29 06:26:38;;;;;;;8.13;6.03;;;-1.40;99.90;;;;;;5052575;28;20426;-62
2023/11/29 06:29:04;;;;;;;6.53;5.93;;;-1.50;99.90;;;;;;5050647;28;20595;-62
2023/11/29 06:31:31;;;;;;;7.63;5.33;;;-1.40;99.90;;;;;;5060690;28;20448;-62
2023/11/29 06:33:57;;;;;;;9.17;6.27;;;-1.40;99.90;;;;;;5045788;28;20469;-63
2023/11/29 06:36:23;;;;;;;10.33;5.87;;;-1.40;99.90;;;;;;5053267;28;20441;-63
2023/11/29 06:38:48;;;;;;;6.13;4.90;;;-1.40;99.90;;;;;;5051408;28;20419;-62
2023/11/29 06:41:14;;;;;;;7.37;5.33;;;-1.30;99.90;;;;;;5051588;28;20278;-61
2023/11/29 06:43:40;;;;;;;7.20;6.10;;;-1.40;99.90;;;;;;5045077;28;20349;-65
2023/11/29 06:46:05;;;;;;;8.00;5.43;;;-1.40;99.90;;;;;;5040877;28;20179;-62
2023/11/29 06:48:34;;;;;;;8.37;5.73;;;-1.40;99.90;;;;;;5033504;28;20238;-62
2023/11/29 06:51:02;;;;;;;6.73;5.10;;;-1.40;99.90;;;;;;5043856;28;20179;-62
2023/11/29 06:53:28;;;;;;;7.60;6.00;;;-1.40;99.90;;;;;;5035883;28;20508;-62
2023/11/29 06:55:55;;;;;;;9.33;7.20;;;-1.40;99.90;;;;;;5044898;28;20413;-61
2023/11/29 06:58:21;;;;;;;10.30;6.30;;;-1.40;99.90;;;;;;5061282;28;20179;-62
2023/11/29 07:00:46;;;;;;;7.77;6.20;;;-1.30;99.90;;;;;;5046150;28;21078;-63
2023/11/29 07:03:13;;;;;;;11.60;9.03;;;-1.40;99.90;;;;;;5039589;28;20575;-63
2023/11/29 07:05:39;;;;;;;11.53;6.73;;;-1.40;99.90;;;;;;5049335;28;20633;-66
2023/11/29 07:08:06;;;;;;;12.60;8.23;;;-1.40;99.90;;;;;;5044154;28;20884;-63
2023/11/29 07:10:33;;;;;;;11.77;8.20;;;-1.50;99.90;;;;;;5036725;28;20415;-63
2023/11/29 07:12:59;;;;;;;9.40;7.30;;;-1.50;99.90;;;;;;5052948;28;20500;-66
2023/11/29 07:15:25;;;;;;;11.20;7.77;;;-1.40;99.90;;;;;;5053217;28;20492;-62
2023/11/29 07:17:51;;;;;;;9.80;7.30;;;-1.50;99.90;;;;;;5049406;28;20779;-62
2023/11/29 07:20:17;;;;;;;12.70;7.67;;;-1.40;99.90;;;;;;5032882;28;20263;-60
2023/11/29 07:22:43;;;;;;;15.57;7.13;;;-1.50;99.90;;;;;;5034070;28;21009;-62
2023/11/29 07:25:09;;;;;;;11.30;7.87;;;-1.30;99.90;;;;;;5048088;28;20422;-62
2023/11/29 07:27:34;;;;;;;9.07;7.27;;;-1.40;99.90;;;;;;5045005;28;20179;-62
2023/11/29 07:30:00;;;;;;;10.50;6.73;;;-1.50;99.90;;;;;;5043918;28;20206;-62
2023/11/29 07:32:26;;;;;;;9.57;7.37;;;-1.30;99.90;;;;;;5053840;28;20406;-62
2023/11/29 07:34:52;;;;;;;13.67;8.63;;;-1.30;99.90;;;;;;5047722;28;20205;-62
2023/11/29 07:37:19;;;;;;;9.27;7.33;;;-1.30;99.90;;;;;;5038325;28;20187;-61
2023/11/29 07:39:45;;;;;;;11.40;6.83;;;-1.20;99.90;;;;;;5049204;28;20560;-61
2023/11/29 07:42:11;;;;;;;16.10;8.10;;;-1.20;99.90;;;;;;5046311;28;20521;-61
2023/11/29 07:44:38;;;;;;;11.37;8.50;;;-1.20;99.90;;;;;;5043804;28;20896;-62
2023/11/29 07:47:04;;;;;;;10.40;7.13;;;-1.30;99.90;;;;;;5050623;28;20665;-62
2023/11/29 07:49:30;;;;;;;8.77;6.53;;;-1.30;99.90;;;;;;5060812;28;20913;-62
2023/11/29 07:51:56;;;;;;;8.47;6.93;;;-1.20;99.90;;;;;;5048674;28;20875;-62
2023/11/29 07:54:22;;;;;;;12.30;7.60;;;-1.20;99.90;;;;;;5038661;28;20440;-62
2023/11/29 07:56:48;;;;;;;13.17;9.57;;;-1.20;99.90;;;;;;5042211;28;20832;-62
2023/11/29 07:59:14;;;;;;;12.27;9.73;;;-1.30;99.90;;;;;;5032101;28;20183;-61
2023/11/29 08:01:40;;;;;;;10.43;8.30;;;-1.30;99.90;;;;;;5039603;28;20180;-62
2023/11/29 08:04:06;;;;;;;10.90;8.00;;;-1.20;99.90;;;;;;5044078;28;20448;-62
2023/11/29 08:06:32;;;;;;;10.97;8.07;;;-1.20;99.90;;;;;;5052367;28;20417;-62
2023/11/29 08:08:58;;;;;;;15.40;8.07;;;-1.20;99.90;;;;;;5051329;28;20516;-61
2023/11/29 08:11:24;;;;;;;12.97;8.40;;;-1.10;99.90;;;;;;5051905;28;20522;-65
2023/11/29 08:13:50;;;;;;;10.57;8.33;;;-1.10;99.90;;;;;;5051595;28;20469;-62
2023/11/29 08:16:16;;;;;;;9.93;8.10;;;-1.00;99.90;;;;;;5054760;28;20183;-64
2023/11/29 08:18:42;;;;;;;12.87;8.67;;;-1.00;99.90;;;;;;5041059;28;20487;-66
2023/11/29 08:21:08;;;;;;;14.50;8.30;;;-1.00;99.90;;;;;;5045693;28;20430;-68
2023/11/29 08:23:34;;;;;;;11.27;7.70;;;-1.00;99.90;;;;;;5039807;28;20238;-61
2023/11/29 08:25:59;;;;;;;13.43;8.63;;;-0.90;99.90;;;;;;5035443;28;20430;-63
2023/11/29 08:28:25;;;;;;;9.47;7.90;;;-0.90;99.90;;;;;;5043701;28;20406;-65
2023/11/29 08:30:51;;;;;;;12.30;7.67;;;-0.80;99.90;;;;;;5043382;28;20236;-64
2023/11/29 08:33:17;;;;;;;11.77;8.50;;;-0.70;99.90;;;;;;5046164;28;20211;-63
2023/11/29 08:35:43;;;;;;;11.87;7.97;;;-0.80;99.90;;;;;;5050110;28;20767;-62
2023/11/29 08:38:09;;;;;;;11.00;8.47;;;-0.70;99.90;;;;;;5045047;28;20172;-62
2023/11/29 08:40:35;;;;;;;14.50;8.70;;;-0.80;99.90;;;;;;5046654;28;20927;-62
2023/11/29 08:43:05;;;;;;;11.10;7.70;;;-0.70;99.90;;;;;;5041064;28;20217;-62
2023/11/29 08:45:31;;;;;;;10.83;7.57;;;-0.60;99.90;;;;;;5037586;28;20429;-62
2023/11/29 08:47:56;;;;;;;9.87;7.80;;;-0.80;99.90;;;;;;5041160;28;20449;-63
2023/11/29 08:50:22;;;;;;;10.37;6.93;;;-0.70;99.90;;;;;;5036380;28;20207;-62
2023/11/29 08:52:50;;;;;;;9.47;7.10;;;-0.60;99.90;;;;;;5046258;28;20206;-63
2023/11/29 08:55:15;;;;;;;10.10;7.33;;;-0.60;99.90;;;;;;5043641;28;20178;-63
2023/11/29 08:57:41;;;;;;;9.73;8.43;;;-0.50;99.90;;;;;;5043388;28;20500;-63
2023/11/29 09:00:09;;;;;;;9.67;7.87;;;-0.60;99.90;;;;;;5050407;28;20319;-59
2023/11/29 09:02:34;;;;;;;13.10;7.37;;;-0.60;99.90;;;;;;5033640;28;20234;-61
2023/11/29 09:05:03;;;;;;;11.60;7.50;;;-0.50;99.90;;;;;;5038456;28;20465;-62
2023/11/29 09:07:28;;;;;;;12.63;8.40;;;-0.50;99.90;;;;;;5048108;28;20221;-61
2023/11/29 09:09:56;;;;;;;10.40;8.00;;;-0.60;99.90;;;;;;5036034;28;20462;-60
2023/11/29 09:12:25;;;;;;;10.80;8.20;;;-0.60;99.90;;;;;;5035873;28;20960;-61
2023/11/29 09:14:55;;;;;;;11.07;7.23;;;-0.50;99.90;;;;;;5042258;28;20513;-61
2023/11/29 09:17:22;;;;;;;16.00;7.17;;;-0.40;99.90;;;;;;5036809;28;20426;-62
2023/11/29 09:19:47;;;;;;;13.80;9.67;;;-0.50;99.90;;;;;;5035480;28;20987;-62
2023/11/29 09:22:13;;;;;;;10.63;8.40;;;-0.40;99.90;;;;;;5042159;28;20548;-61
2023/11/29 09:24:38;;;;;;;12.47;8.57;;;-0.30;99.90;;;;;;5047750;28;20197;-62
2023/11/29 09:27:04;;;;;;;9.80;7.63;;;-0.20;99.90;;;;;;5051255;28;20330;-63
2023/11/29 09:29:30;;;;;;;16.20;9.53;;;-0.10;99.90;;;;;;5051871;28;20696;-60
2023/11/29 09:31:56;;;;;;;13.30;8.17;;;0.00;99.90;;;;;;5036092;28;20492;-61
2023/11/29 09:34:22;;;;;;;11.53;8.90;;;0.00;99.90;;;;;;5044103;28;20262;-60
2023/11/29 09:36:48;;;;;;;10.83;8.27;;;0.00;99.90;;;;;;5056154;28;20198;-61
2023/11/29 09:39:17;;;;;;;11.77;8.07;;;-0.10;99.90;;;;;;5051618;28;20703;-60
2023/11/29 09:41:46;;;;;;;10.40;7.83;;;-0.10;99.90;;;;;;5046034;28;20457;-61
2023/11/29 09:44:13;;;;;;;12.43;7.97;;;-0.10;99.90;;;;;;5043400;28;20446;-62
2023/11/29 09:46:39;;;;;;;9.90;8.13;;;-0.20;99.90;;;;;;5036732;28;20424;-62
2023/11/29 09:49:05;;;;;;;10.63;8.37;;;0.00;99.90;;;;;;5043564;28;20497;-62
2023/11/29 09:51:32;;;;;;;9.70;8.10;;;0.00;99.90;;;;;;5052764;28;20445;-62
2023/11/29 09:53:58;;;;;;;8.33;7.40;;;0.00;99.90;;;;;;5047971;28;20957;-61
2023/11/29 09:56:24;;;;;;;10.90;7.07;;;0.10;99.90;;;;;;5050121;28;20438;-61
2023/11/29 09:58:50;;;;;;;10.83;7.03;;;0.20;99.90;;;;;;5057230;28;20185;-60
2023/11/29 10:01:16;;;;;;;12.07;7.33;;;0.20;99.90;;;;;;5042332;28;20422;-61
2023/11/29 10:03:42;;;;;;;13.17;10.10;;;0.20;99.90;;;;;;5054182;28;20275;-61
2023/11/29 10:06:08;;;;;;;8.90;7.80;;;0.00;99.90;;;;;;5047650;28;20430;-61
2023/11/29 10:08:34;;;;;;;12.00;7.37;;;0.00;99.90;;;;;;5051759;28;20452;-61
2023/11/29 10:11:00;;;;;;;8.80;6.63;;;0.00;99.90;;;;;;5049566;28;20413;-61
2023/11/29 10:13:28;;;;;;;9.20;7.00;;;0.20;99.90;;;;;;5047855;28;20454;-61
2023/11/29 10:15:55;;;;;;;11.70;7.70;;;0.20;99.90;;;;;;5049453;28;20422;-62
2023/11/29 10:18:21;;;;;;;9.73;6.80;;;0.10;99.90;;;;;;5052654;28;20821;-62
2023/11/29 10:20:49;;;;;;;10.17;6.67;;;0.10;99.90;;;;;;5054682;28;20409;-62
2023/11/29 10:23:15;;;;;;;9.70;6.77;;;0.10;99.90;;;;;;5041999;28;20434;-62
2023/11/29 10:25:43;;;;;;;9.50;7.50;;;0.20;99.90;;;;;;5051515;28;20424;-63
2023/11/29 10:28:09;;;;;;;10.37;7.37;;;0.00;99.90;;;;;;5051673;28;20460;-62
2023/11/29 10:30:34;;;;;;;11.87;8.13;;;0.00;99.90;;;;;;5054561;28;20433;-62
2023/11/29 10:33:02;;;;;;;8.23;6.60;;;0.00;99.90;;;;;;5057815;28;20574;-61
2023/11/29 10:35:32;;;;;;;10.53;7.63;;;0.00;99.90;;;;;;5049740;28;20503;-63
2023/11/29 10:38:12;;;;;;;12.00;8.70;;;0.10;99.90;;;;;;5046847;28;20415;-63
2023/11/29 10:40:39;;;;;;;13.07;8.37;;;0.10;99.90;;;;;;5056078;28;20770;-62
2023/11/29 10:43:07;;;;;;;11.30;9.40;;;0.10;99.90;;;;;;5051788;28;20448;-62
2023/11/29 10:45:39;;;;;;;9.77;8.30;;;0.30;99.90;;;;;;5049896;28;20900;-62
2023/11/29 10:48:10;;;;;;;12.57;8.80;;;0.40;99.90;;;;;;5039007;28;20425;-62
2023/11/29 10:50:38;;;;;;;13.53;10.20;;;0.40;99.90;;;;;;5043346;28;20433;-60
2023/11/29 10:53:04;;;;;;;11.60;8.00;;;0.40;99.90;;;;;;5036955;28;20466;-61
2023/11/29 10:55:35;;;;;;;15.13;8.80;;;0.40;99.90;;;;;;5040315;28;20422;-61
2023/11/29 10:58:19;;;;;;;14.60;8.90;;;0.40;99.90;;;;;;5050355;28;20409;-62
2023/11/29 11:00:45;;;;;;;12.93;8.20;;;0.60;99.90;;;;;;5048874;28;20417;-61
2023/11/29 11:03:42;;;;;;;12.93;9.70;;;0.50;99.90;;;;;;5040741;28;20867;-62
2023/11/29 11:06:23;;;;;;;14.10;9.23;;;0.70;99.90;;;;;;5046595;28;20442;-62
2023/11/29 11:08:53;;;;;;;12.77;8.67;;;0.60;99.90;;;;;;5044092;28;20416;-62
2023/11/29 11:11:43;;;;;;;10.90;8.73;;;0.80;99.90;;;;;;5044076;28;20418;-63
2023/11/29 11:14:21;;;;;;;10.67;8.57;;;0.90;99.90;;;;;;5043072;28;20457;-63
2023/11/29 11:16:58;;;;;;;15.00;9.03;;;0.90;99.90;;;;;;5048948;28;20408;-61
2023/11/29 11:19:43;;;;;;;10.57;8.83;;;0.90;99.90;;;;;;5044339;28;20417;-61
2023/11/29 11:22:26;;;;;;;10.90;7.70;;;0.90;99.90;;;;;;5040916;28;20917;-62
2023/11/29 11:24:58;;;;;;;12.00;9.30;;;1.00;99.90;;;;;;5054237;28;20733;-62
2023/11/29 11:27:34;;;;;;;12.80;8.57;;;0.90;99.90;;;;;;5043522;28;20500;-61
2023/11/29 11:30:04;;;;;;;12.37;8.70;;;0.80;99.90;;;;;;5044035;28;20417;-60
2023/11/29 11:32:47;;;;;;;12.40;8.50;;;0.80;99.90;;;;;;5056388;28;20472;-61
2023/11/29 11:35:24;;;;;;;14.60;9.00;;;0.80;99.90;;;;;;5048883;28;20792;-62
2023/11/29 11:37:58;;;;;;;16.63;9.33;;;0.80;99.90;;;;;;5034326;28;20410;-61
2023/11/29 11:40:29;;;;;;;15.67;9.80;;;0.80;99.90;;;;;;5041934;28;20512;-61
2023/11/29 11:42:56;;;;;;;12.73;8.17;;;0.80;99.90;;;;;;5044215;28;21064;-62
2023/11/29 11:45:23;;;;;;;10.47;8.90;;;0.70;99.90;;;;;;5045081;28;20735;-61
2023/11/29 11:47:49;;;;;;;13.60;9.30;;;0.80;99.90;;;;;;5047087;28;20434;-62
2023/11/29 11:50:18;;;;;;;12.07;8.73;;;0.80;99.90;;;;;;5049296;28;20417;-62
2023/11/29 11:52:44;;;;;;;12.73;8.53;;;0.70;99.90;;;;;;5051828;28;20497;-60
2023/11/29 11:55:18;;;;;;;16.37;9.50;;;0.60;99.90;;;;;;5041263;28;20865;-67
2023/11/29 11:57:44;;;;;;;13.13;9.03;;;0.60;99.90;;;;;;5048148;28;20425;-60
2023/11/29 12:00:12;;;;;;;13.90;8.80;;;0.60;99.90;;;;;;5041653;28;20422;-60
2023/11/29 12:02:39;;;;;;;14.27;7.67;;;0.80;99.90;;;;;;5039531;28;20494;-60
2023/11/29 12:05:05;;;;;;;14.40;10.00;;;0.70;99.90;;;;;;5047397;28;20509;-62
2023/11/29 12:07:31;;;;;;;8.37;6.97;;;0.60;99.90;;;;;;5055416;28;20496;-61
2023/11/29 12:09:57;;;;;;;12.20;8.07;;;0.60;99.90;;;;;;5044660;28;20457;-62
2023/11/29 12:12:24;;;;;;;13.63;8.93;;;0.60;99.90;;;;;;5051556;28;20899;-61
2023/11/29 12:14:51;;;;;;;11.60;9.03;;;0.60;99.90;;;;;;5054793;28;20413;-62
2023/11/29 12:17:18;;;;;;;11.20;8.47;;;0.60;99.90;;;;;;5050076;28;20413;-63
2023/11/29 12:19:48;;;;;;;16.10;8.37;;;0.60;99.90;;;;;;5051502;28;20504;-61
2023/11/29 12:22:14;;;;;;;11.30;9.17;;;0.60;99.90;;;;;;5050909;28;20784;-60
2023/11/29 12:24:48;;;;;;;12.20;9.03;;;0.60;99.90;;;;;;5050953;28;20401;-61
2023/11/29 12:27:16;;;;;;;17.27;9.77;;;0.50;99.90;;;;;;5056622;28;20765;-60
2023/11/29 12:29:44;;;;;;;15.77;10.30;;;0.60;99.90;;;;;;5045745;28;20418;-61
2023/11/29 12:32:10;;;;;;;12.60;9.43;;;0.60;99.90;;;;;;5054105;28;20456;-62
2023/11/29 12:34:37;;;;;;;14.63;10.57;;;0.60;99.90;;;;;;5050045;28;20449;-62
2023/11/29 12:37:04;;;;;;;13.43;9.43;;;0.60;99.90;;;;;;5047295;28;21013;-62
2023/11/29 12:39:30;;;;;;;13.90;9.80;;;0.60;99.90;;;;;;5052200;28;20437;-62
2023/11/29 12:41:56;;;;;;;18.50;8.80;;;0.70;99.90;;;;;;5053197;28;20422;-61